Time;durP1;ratioP1;P1;durP2;ratioP2;P2;SDS_P1;SDS_P2;PMS_P1;PMS_P2;Temp;Humidity;BMP_temperature;BMP_pressure;BME280_temperature;BME280_humidity;BME280_pressure;Samples;Min_cycle;Max_cycle;Signal;HPM_P1;HPM_P2
2022/07/25 00:01:56;;;;;;;;;;;11.70;93.70;;;;;;5092269;28;19912;-73
2022/07/25 00:04:22;;;;;;;;;;;11.70;93.60;;;;;;5091082;28;20301;-73
2022/07/25 00:06:49;;;;;;;;;;;11.70;93.60;;;;;;5092106;28;20334;-74
2022/07/25 00:09:15;;;;;;;;;;;11.80;93.60;;;;;;5092161;28;20429;-73
2022/07/25 00:11:42;;;;;;;;;;;11.80;93.60;;;;;;5092173;28;19909;-74
2022/07/25 00:14:08;;;;;;;;;;;11.80;93.60;;;;;;5092518;28;19952;-73
2022/07/25 00:16:35;;;;;;;;;;;11.90;93.60;;;;;;5092358;28;19931;-73
2022/07/25 00:19:02;;;;;;;;;;;11.90;93.60;;;;;;5092788;28;19912;-73
2022/07/25 00:21:28;;;;;;;;;;;12.00;93.30;;;;;;5091279;28;20293;-73
2022/07/25 00:23:55;;;;;;;;;;;12.00;93.30;;;;;;5092195;28;19990;-73
2022/07/25 00:26:21;;;;;;;;;;;12.10;93.40;;;;;;5092244;28;19908;-73
2022/07/25 00:28:48;;;;;;;;;;;12.10;93.30;;;;;;5092112;28;19908;-73
2022/07/25 00:31:14;;;;;;;;;;;12.10;93.20;;;;;;5091997;28;19909;-73
2022/07/25 00:33:41;;;;;;;;;;;12.10;93.00;;;;;;5092328;28;19912;-73
2022/07/25 00:36:08;;;;;;;;;;;12.20;93.00;;;;;;5092081;28;19916;-73
2022/07/25 00:38:35;;;;;;;;;;;12.20;92.80;;;;;;5090763;28;19916;-73
2022/07/25 00:41:01;;;;;;;;;;;12.20;92.80;;;;;;5093255;28;20014;-73
2022/07/25 00:43:28;;;;;;;;;;;12.30;92.80;;;;;;5095850;28;20324;-73
2022/07/25 00:45:57;;;;;;;;;;;12.30;92.90;;;;;;5096185;28;19916;-73
2022/07/25 00:48:24;;;;;;;;;;;12.40;92.80;;;;;;5096372;28;20133;-73
2022/07/25 00:50:51;;;;;;;;;;;12.40;92.70;;;;;;5094693;28;19977;-73
2022/07/25 00:53:17;;;;;;;;;;;12.40;92.70;;;;;;5096268;28;19919;-72
2022/07/25 00:55:44;;;;;;;;;;;12.50;92.60;;;;;;5094606;28;20381;-72
2022/07/25 00:58:10;;;;;;;;;;;12.50;92.50;;;;;;5095797;28;19916;-73
2022/07/25 01:00:37;;;;;;;;;;;12.50;92.50;;;;;;5095917;28;19938;-72
2022/07/25 01:03:03;;;;;;;;;;;12.60;92.50;;;;;;5095891;28;19998;-72
2022/07/25 01:05:30;;;;;;;;;;;12.70;92.50;;;;;;5095544;28;19912;-72
2022/07/25 01:07:57;;;;;;;;;;;12.70;92.30;;;;;;5095474;28;19912;-72
2022/07/25 01:10:23;;;;;;;;;;;12.70;92.30;;;;;;5094407;28;19908;-73
2022/07/25 01:12:53;;;;;;;;;;;12.70;92.40;;;;;;5095477;28;19915;-73
2022/07/25 01:15:20;;;;;;;;;;;12.80;91.90;;;;;;5094379;28;19919;-74
2022/07/25 01:17:47;;;;;;;;;;;12.80;91.90;;;;;;5095706;28;19916;-74
2022/07/25 01:20:16;;;;;;;;;;;12.90;91.70;;;;;;5095031;28;19908;-74
2022/07/25 01:22:43;;;;;;;;;;;12.90;91.50;;;;;;5095508;28;19915;-73
2022/07/25 01:25:10;;;;;;;;;;;13.00;91.60;;;;;;5093606;28;19915;-75
2022/07/25 01:27:37;;;;;;;;;;;13.00;91.60;;;;;;5094182;28;19912;-73
2022/07/25 01:30:04;;;;;;;;;;;13.00;91.50;;;;;;5094012;28;19991;-73
2022/07/25 01:32:31;;;;;;;;;;;13.00;91.60;;;;;;5093888;28;19908;-73
2022/07/25 01:34:57;;;;;;;;;;;13.10;91.70;;;;;;5095159;28;19966;-73
2022/07/25 01:37:24;;;;;;;;;;;13.10;91.70;;;;;;5093745;28;19916;-73
2022/07/25 01:39:51;;;;;;;;;;;13.10;91.50;;;;;;5095042;28;19915;-73
2022/07/25 01:42:17;;;;;;;;;;;13.20;91.30;;;;;;5094891;28;20361;-74
2022/07/25 01:44:44;;;;;;;;;;;13.20;91.30;;;;;;5094803;28;19908;-74
2022/07/25 01:47:10;;;;;;;;;;;13.20;91.30;;;;;;5094922;28;20324;-73
2022/07/25 01:49:37;;;;;;;;;;;13.30;91.10;;;;;;5095013;28;20362;-73
2022/07/25 01:52:03;;;;;;;;;;;13.30;91.10;;;;;;5094244;28;19999;-73
2022/07/25 01:54:31;;;;;;;;;;;13.30;90.90;;;;;;5094485;28;19922;-73
2022/07/25 01:56:57;;;;;;;;;;;13.30;91.00;;;;;;5094709;28;20271;-73
2022/07/25 01:59:24;;;;;;;;;;;13.40;90.70;;;;;;5094208;28;19912;-73
2022/07/25 02:01:50;;;;;;;;;;;13.40;90.50;;;;;;5093943;28;19961;-73
2022/07/25 02:04:17;;;;;;;;;;;13.50;90.40;;;;;;5093047;28;19958;-73
2022/07/25 02:06:43;;;;;;;;;;;13.50;90.20;;;;;;5094568;28;19934;-74
2022/07/25 02:09:10;;;;;;;;;;;13.50;90.10;;;;;;5094440;28;19908;-73
2022/07/25 02:11:36;;;;;;;;;;;13.60;90.00;;;;;;5094178;28;19931;-73
2022/07/25 02:14:03;;;;;;;;;;;13.60;89.80;;;;;;5094069;28;19968;-74
2022/07/25 02:16:30;;;;;;;;;;;13.70;89.80;;;;;;5094038;28;19908;-73
2022/07/25 02:18:56;;;;;;;;;;;13.70;89.70;;;;;;5094143;28;20008;-74
2022/07/25 02:21:23;;;;;;;;;;;13.70;89.50;;;;;;5093776;28;20289;-74
2022/07/25 02:23:49;;;;;;;;;;;13.70;89.50;;;;;;5094736;28;19918;-73
2022/07/25 02:26:16;;;;;;;;;;;13.70;89.40;;;;;;5094114;28;19913;-73
2022/07/25 02:28:42;;;;;;;;;;;13.80;89.30;;;;;;5093812;28;19994;-74
2022/07/25 02:31:09;;;;;;;;;;;13.80;89.30;;;;;;5093868;28;19912;-74
2022/07/25 02:33:36;;;;;;;;;;;13.90;89.10;;;;;;5093890;28;20297;-74
2022/07/25 02:36:02;;;;;;;;;;;14.00;89.00;;;;;;5093856;28;20357;-73
2022/07/25 02:38:29;;;;;;;;;;;14.00;89.00;;;;;;5094002;28;20002;-73
2022/07/25 02:40:56;;;;;;;;;;;14.00;89.00;;;;;;5093749;28;19938;-73
2022/07/25 02:43:22;;;;;;;;;;;14.10;89.00;;;;;;5093802;28;19955;-73
2022/07/25 02:45:49;;;;;;;;;;;14.10;88.80;;;;;;5093658;28;19909;-74
2022/07/25 02:48:15;;;;;;;;;;;14.20;88.80;;;;;;5093648;28;19916;-74
2022/07/25 02:50:42;;;;;;;;;;;14.20;88.70;;;;;;5093513;28;19912;-74
2022/07/25 02:53:08;;;;;;;;;;;14.20;88.70;;;;;;5093857;28;19912;-74
2022/07/25 02:55:35;;;;;;;;;;;14.20;88.80;;;;;;5093573;28;19916;-74
2022/07/25 02:58:02;;;;;;;;;;;14.20;88.90;;;;;;5092246;28;20332;-74
2022/07/25 03:00:29;;;;;;;;;;;14.30;88.80;;;;;;5092139;28;20397;-74
2022/07/25 03:02:56;;;;;;;;;;;14.30;88.70;;;;;;5092089;28;19915;-74
2022/07/25 03:05:22;;;;;;;;;;;14.30;88.70;;;;;;5092094;28;19909;-74
2022/07/25 03:07:49;;;;;;;;;;;14.40;88.60;;;;;;5091836;28;19909;-72
2022/07/25 03:10:15;;;;;;;;;;;14.40;88.40;;;;;;5092084;28;19994;-73
2022/07/25 03:12:42;;;;;;;;;;;14.50;88.30;;;;;;5092142;28;19909;-72
2022/07/25 03:15:09;;;;;;;;;;;14.50;88.40;;;;;;5092833;28;19927;-73
2022/07/25 03:17:36;;;;;;;;;;;14.60;88.40;;;;;;5092789;28;19920;-72
2022/07/25 03:20:03;;;;;;;;;;;14.70;88.40;;;;;;5092973;28;19919;-72
2022/07/25 03:22:30;;;;;;;;;;;14.80;88.00;;;;;;5091979;28;19934;-72
2022/07/25 03:24:56;;;;;;;;;;;14.80;87.90;;;;;;5091636;28;19919;-73
2022/07/25 03:27:23;;;;;;;;;;;14.90;87.50;;;;;;5093038;28;19908;-72
2022/07/25 03:29:49;;;;;;;;;;;15.00;86.20;;;;;;5092882;28;20025;-72
2022/07/25 03:32:16;;;;;;;;;;;15.20;85.20;;;;;;5093303;28;19915;-72
2022/07/25 03:34:42;;;;;;;;;;;15.20;85.20;;;;;;5093082;28;19908;-73
2022/07/25 03:37:09;;;;;;;;;;;15.20;85.10;;;;;;5092665;28;19973;-72
2022/07/25 03:39:35;;;;;;;;;;;15.20;85.00;;;;;;5093016;28;19908;-73
2022/07/25 03:42:02;;;;;;;;;;;15.20;85.00;;;;;;5093204;28;19908;-73
2022/07/25 03:44:29;;;;;;;;;;;15.20;85.60;;;;;;5092777;28;19908;-73
2022/07/25 03:46:55;;;;;;;;;;;15.20;85.70;;;;;;5092706;28;19985;-73
2022/07/25 03:49:22;;;;;;;;;;;15.20;85.80;;;;;;5092771;28;19908;-72
2022/07/25 03:51:48;;;;;;;;;;;15.20;85.50;;;;;;5092628;28;19934;-73
2022/07/25 03:54:15;;;;;;;;;;;15.20;85.60;;;;;;5092486;28;20271;-75
2022/07/25 03:56:42;;;;;;;;;;;15.30;85.80;;;;;;5092736;28;19970;-75
2022/07/25 03:59:10;;;;;;;;;;;15.30;85.70;;;;;;5092215;28;19908;-74
2022/07/25 04:01:36;;;;;;;;;;;15.30;85.60;;;;;;5092532;28;20332;-74
2022/07/25 04:04:03;;;;;;;;;;;15.30;85.10;;;;;;5072266;28;19916;-74
2022/07/25 04:06:30;;;;;;;;;;;15.40;85.10;;;;;;5092553;28;19908;-74
2022/07/25 04:08:57;;;;;;;;;;;15.40;84.90;;;;;;5091359;28;19908;-74
2022/07/25 04:11:23;;;;;;;;;;;15.30;84.30;;;;;;5091118;28;19916;-73
2022/07/25 04:13:50;;;;;;;;;;;15.50;83.90;;;;;;5074257;28;19965;-73
2022/07/25 04:16:17;;;;;;;;;;;15.50;83.50;;;;;;5091930;28;19912;-73
2022/07/25 04:18:43;;;;;;;;;;;15.50;82.60;;;;;;5070814;28;20042;-74
2022/07/25 04:21:10;;;;;;;;;;;15.50;82.00;;;;;;5084886;28;20281;-74
2022/07/25 04:23:37;;;;;;;;;;;15.50;82.00;;;;;;5091135;28;19912;-73
2022/07/25 04:26:03;;;;;;;;;;;15.50;81.80;;;;;;5091026;28;19989;-73
2022/07/25 04:28:31;;;;;;;;;;;15.60;81.50;;;;;;5091052;28;19923;-73
2022/07/25 04:30:57;;;;;;;;;;;15.60;81.40;;;;;;5090991;28;19916;-74
2022/07/25 04:33:24;;;;;;;;;;;15.60;81.70;;;;;;5090863;28;20007;-75
2022/07/25 04:35:51;;;;;;;;;;;15.70;81.30;;;;;;5091966;28;19990;-74
2022/07/25 04:38:17;;;;;;;;;;;15.70;80.50;;;;;;5092105;28;19969;-75
2022/07/25 04:40:44;;;;;;;;;;;15.80;80.10;;;;;;5091868;28;19955;-75
2022/07/25 04:43:10;;;;;;;;;;;15.80;80.30;;;;;;5090961;28;19965;-74
2022/07/25 04:45:37;;;;;;;;;;;15.80;80.60;;;;;;5090552;28;19995;-74
2022/07/25 04:48:04;;;;;;;;;;;15.80;80.60;;;;;;5073917;28;20362;-75
2022/07/25 04:50:30;;;;;;;;;;;15.80;79.80;;;;;;5091729;28;20314;-75
2022/07/25 04:52:57;;;;;;;;;;;15.80;79.80;;;;;;5092337;28;20270;-76
2022/07/25 04:55:23;;;;;;;;;;;15.80;79.90;;;;;;5092093;28;20003;-76
2022/07/25 04:57:50;;;;;;;;;;;15.80;80.20;;;;;;5090360;28;20437;-76
2022/07/25 05:00:17;;;;;;;;;;;15.70;80.40;;;;;;5092098;28;19908;-76
2022/07/25 05:02:43;;;;;;;;;;;15.70;80.70;;;;;;5091946;28;19915;-74
2022/07/25 05:05:10;;;;;;;;;;;15.70;80.80;;;;;;5092031;28;19908;-74
2022/07/25 05:07:37;;;;;;;;;;;15.70;81.00;;;;;;5092007;28;19915;-74
2022/07/25 05:10:03;;;;;;;;;;;15.60;81.40;;;;;;5090491;28;20328;-74
2022/07/25 05:12:30;;;;;;;;;;;15.60;82.10;;;;;;5091859;28;19915;-74
2022/07/25 05:14:57;;;;;;;;;;;15.60;81.90;;;;;;5090019;28;19927;-74
2022/07/25 05:17:23;;;;;;;;;;;15.60;82.50;;;;;;5091584;28;20062;-74
2022/07/25 05:19:50;;;;;;;;;;;15.60;82.30;;;;;;5091394;28;19955;-74
2022/07/25 05:22:16;;;;;;;;;;;15.60;82.40;;;;;;5090426;28;20223;-75
2022/07/25 05:24:43;;;;;;;;;;;15.60;82.40;;;;;;5090327;28;20321;-74
2022/07/25 05:27:09;;;;;;;;;;;15.60;82.70;;;;;;5091779;28;20431;-73
2022/07/25 05:29:36;;;;;;;;;;;15.60;83.00;;;;;;5094939;28;19908;-74
2022/07/25 05:32:03;;;;;;;;;;;15.50;83.50;;;;;;5093692;28;19916;-73
2022/07/25 05:34:29;;;;;;;;;;;15.50;84.00;;;;;;5095513;28;19919;-73
2022/07/25 05:36:56;;;;;;;;;;;15.40;84.50;;;;;;5093515;28;20392;-73
2022/07/25 05:39:22;;;;;;;;;;;15.40;85.10;;;;;;5095205;28;19908;-74
2022/07/25 05:41:49;;;;;;;;;;;15.40;85.30;;;;;;5095073;28;19908;-74
2022/07/25 05:44:15;;;;;;;;;;;15.40;85.70;;;;;;5095008;28;19912;-73
2022/07/25 05:46:42;;;;;;;;;;;15.40;85.40;;;;;;5095238;28;19958;-74
2022/07/25 05:49:09;;;;;;;;;;;15.40;85.50;;;;;;5094788;28;19915;-73
2022/07/25 05:51:35;;;;;;;;;;;15.40;85.80;;;;;;5094995;28;19909;-74
2022/07/25 05:54:02;;;;;;;;;;;15.30;85.70;;;;;;5094774;28;19908;-73
2022/07/25 05:56:29;;;;;;;;;;;15.30;85.80;;;;;;5094240;28;19908;-74
2022/07/25 05:58:55;;;;;;;;;;;15.30;85.90;;;;;;5088415;28;20313;-74
2022/07/25 06:01:31;;;;;;;;;;;15.30;85.90;;;;;;5094653;28;19939;-74
2022/07/25 06:03:58;;;;;;;;;;;15.20;86.10;;;;;;5070467;28;20045;-75
2022/07/25 06:06:24;;;;;;;;;;;15.20;86.20;;;;;;5088730;28;19916;-74
2022/07/25 06:08:51;;;;;;;;;;;15.30;86.00;;;;;;5089041;28;19912;-74
2022/07/25 06:11:17;;;;;;;;;;;15.20;86.00;;;;;;5093700;28;19909;-74
2022/07/25 06:13:44;;;;;;;;;;;15.20;85.80;;;;;;5095036;28;19951;-75
2022/07/25 06:16:10;;;;;;;;;;;15.20;85.90;;;;;;5095897;28;19908;-75
2022/07/25 06:18:37;;;;;;;;;;;15.20;85.80;;;;;;5093578;28;20350;-74
2022/07/25 06:21:05;;;;;;;;;;;15.20;85.40;;;;;;5106080;28;20259;-75
2022/07/25 06:23:31;;;;;;;;;;;15.30;84.90;;;;;;5091730;28;19915;-75
2022/07/25 06:25:58;;;;;;;;;;;15.20;85.00;;;;;;5097228;28;20375;-75
2022/07/25 06:28:27;;;;;;;;;;;15.20;85.10;;;;;;5094245;28;19924;-75
2022/07/25 06:30:54;;;;;;;;;;;15.20;85.20;;;;;;5095458;28;21260;-75
2022/07/25 06:33:20;;;;;;;;;;;15.20;85.40;;;;;;5088884;28;20015;-75
2022/07/25 06:35:47;;;;;;;;;;;15.20;85.50;;;;;;5098447;28;19912;-75
2022/07/25 06:38:13;;;;;;;;;;;15.20;85.70;;;;;;5093227;28;19923;-74
2022/07/25 06:40:40;;;;;;;;;;;15.20;86.10;;;;;;5093738;28;19945;-74
2022/07/25 06:43:07;;;;;;;;;;;15.10;86.10;;;;;;5089107;28;19918;-74
2022/07/25 06:45:33;;;;;;;;;;;15.10;86.30;;;;;;5094006;28;19958;-75
2022/07/25 06:48:00;;;;;;;;;;;15.10;86.40;;;;;;5093976;28;19916;-75
2022/07/25 06:50:27;;;;;;;;;;;15.00;86.50;;;;;;5093894;28;19919;-75
2022/07/25 06:52:53;;;;;;;;;;;15.00;86.60;;;;;;5084382;28;19912;-74
2022/07/25 06:55:20;;;;;;;;;;;15.00;86.90;;;;;;5090283;28;20324;-74
2022/07/25 06:57:47;;;;;;;;;;;15.00;87.10;;;;;;5081485;28;20476;-75
2022/07/25 07:00:13;;;;;;;;;;;14.90;87.10;;;;;;5090476;28;19931;-74
2022/07/25 11:02:56;;;;;;;;;;;14.00;88.30;;;;;;5070615;28;19966;-66
2022/07/25 11:05:22;;;;;;;;;;;14.00;87.90;;;;;;5091380;28;19920;-69
2022/07/25 11:07:52;;;;;;;;;;;14.00;87.60;;;;;;5089201;28;20065;-65
2022/07/25 11:10:25;;;;;;;;;;;14.10;87.60;;;;;;5091039;28;19912;-64
2022/07/25 11:12:52;;;;;;;;;;;14.00;87.50;;;;;;5089951;28;20381;-65
2022/07/25 11:15:22;;;;;;;;;;;14.00;87.30;;;;;;5088251;28;19945;-64
2022/07/25 11:17:52;;;;;;;;;;;14.00;87.30;;;;;;5084116;28;20397;-65
2022/07/25 11:20:19;;;;;;;;;;;14.00;87.40;;;;;;5087161;28;19937;-65
2022/07/25 11:22:54;;;;;;;;;;;14.00;87.60;;;;;;5081453;28;19920;-66
2022/07/25 11:25:21;;;;;;;;;;;14.00;87.80;;;;;;5079720;28;20536;-68
2022/07/25 11:27:58;;;;;;;;;;;14.00;87.50;;;;;;5090476;28;19955;-67
2022/07/25 11:30:24;;;;;;;;;;;13.90;87.60;;;;;;5083665;28;20370;-67
2022/07/25 11:32:58;;;;;;;;;;;13.80;87.80;;;;;;5083076;28;19912;-66
2022/07/25 11:35:24;;;;;;;;;;;13.90;87.60;;;;;;5078523;28;20015;-67
2022/07/25 11:37:51;;;;;;;;;;;13.80;87.90;;;;;;5089127;28;19915;-66
2022/07/25 11:40:18;;;;;;;;;;;13.80;87.70;;;;;;5076934;28;19919;-64
2022/07/25 11:42:47;;;;;;;;;;;13.80;87.60;;;;;;5081426;28;19961;-63
2022/07/25 11:45:18;;;;;;;;;;;13.80;87.70;;;;;;5083322;28;19969;-64
2022/07/25 11:47:45;;;;;;;;;;;13.80;87.80;;;;;;5086435;28;19920;-65
2022/07/25 11:50:13;;;;;;;;;;;13.80;87.60;;;;;;5083496;28;19920;-65
2022/07/25 11:52:44;;;;;;;;;;;13.70;87.60;;;;;;5081911;28;19908;-63
2022/07/25 11:55:16;;;;;;;;;;;13.70;87.80;;;;;;5087623;28;19916;-65
2022/07/25 11:57:43;;;;;;;;;;;13.70;87.70;;;;;;5079625;28;19922;-64
2022/07/25 12:00:15;;;;;;;;;;;13.70;87.70;;;;;;5086577;28;19920;-63
2022/07/25 12:02:41;;;;;;;;;;;13.70;87.60;;;;;;5088796;28;19928;-65
2022/07/25 12:05:09;;;;;;;;;;;13.70;87.50;;;;;;5088719;28;19984;-65
2022/07/25 12:07:46;;;;;;;;;;;13.70;87.50;;;;;;5089520;28;20673;-65
2022/07/25 12:10:15;;;;;;;;;;;13.70;87.70;;;;;;5088859;28;19916;-66
2022/07/25 12:12:52;;;;;;;;;;;13.70;87.70;;;;;;5088336;28;19916;-67
2022/07/25 12:15:24;;;;;;;;;;;13.70;87.40;;;;;;5081403;28;19923;-67
2022/07/25 12:17:51;;;;;;;;;;;13.70;87.40;;;;;;5073234;28;19929;-66
2022/07/25 12:20:21;;;;;;;;;;;13.70;87.60;;;;;;5079570;28;20297;-65
2022/07/25 12:22:48;;;;;;;;;;;13.70;87.60;;;;;;5085543;28;20004;-65
2022/07/25 12:25:15;;;;;;;;;;;13.70;87.70;;;;;;5088992;28;19916;-65
2022/07/25 12:27:42;;;;;;;;;;;13.70;88.00;;;;;;5086812;28;19923;-65
2022/07/25 12:30:09;;;;;;;;;;;13.60;87.70;;;;;;5084836;28;19925;-65
2022/07/25 12:32:35;;;;;;;;;;;13.60;87.80;;;;;;5087923;28;19916;-65
2022/07/25 12:35:02;;;;;;;;;;;13.60;87.50;;;;;;5086409;28;19977;-65
2022/07/25 12:37:29;;;;;;;;;;;13.60;87.20;;;;;;5082465;28;19924;-65
2022/07/25 12:39:56;;;;;;;;;;;13.60;87.20;;;;;;5092447;28;19920;-65
2022/07/25 12:42:22;;;;;;;;;;;13.60;87.20;;;;;;5088894;28;20019;-65
2022/07/25 12:44:49;;;;;;;;;;;13.60;86.80;;;;;;5091204;28;19961;-64
2022/07/25 12:47:16;;;;;;;;;;;13.60;86.80;;;;;;5088820;28;19935;-65
2022/07/25 12:49:42;;;;;;;;;;;13.60;86.30;;;;;;5086728;28;19951;-65
2022/07/25 12:52:09;;;;;;;;;;;13.60;86.40;;;;;;5089129;28;20266;-66
2022/07/25 12:54:35;;;;;;;;;;;13.60;86.50;;;;;;5083055;28;19936;-66
2022/07/25 12:57:02;;;;;;;;;;;13.60;86.70;;;;;;5088080;28;19927;-66
2022/07/25 12:59:28;;;;;;;;;;;13.50;86.60;;;;;;5090399;28;19926;-66
2022/07/25 13:01:55;;;;;;;;;;;13.50;86.70;;;;;;5080542;28;19924;-66
2022/07/25 13:04:24;;;;;;;;;;;13.50;86.70;;;;;;5092461;28;19917;-68
2022/07/25 13:06:55;;;;;;;;;;;13.50;86.80;;;;;;5091755;28;19916;-68
2022/07/25 13:09:21;;;;;;;;;;;13.40;86.80;;;;;;5092875;28;19967;-68
2022/07/25 13:11:48;;;;;;;;;;;13.40;87.40;;;;;;5084437;28;19912;-64
2022/07/25 13:14:15;;;;;;;;;;;13.40;87.10;;;;;;5089872;28;19912;-64
2022/07/25 13:16:42;;;;;;;;;;;13.40;87.20;;;;;;5090794;28;19916;-64
2022/07/25 13:19:08;;;;;;;;;;;13.50;87.10;;;;;;5092538;28;20010;-64
2022/07/25 13:21:35;;;;;;;;;;;13.30;87.10;;;;;;5084361;28;19916;-64
2022/07/25 13:24:01;;;;;;;;;;;13.40;87.10;;;;;;5090333;28;19916;-64
2022/07/25 13:26:28;;;;;;;;;;;13.30;87.40;;;;;;5092422;28;19920;-65
2022/07/25 13:28:55;;;;;;;;;;;13.30;87.60;;;;;;5087927;28;19916;-64
2022/07/25 13:31:22;;;;;;;;;;;13.30;87.50;;;;;;5086033;28;19959;-65
2022/07/25 13:33:49;;;;;;;;;;;13.30;87.60;;;;;;5087561;28;20389;-64
2022/07/25 13:36:16;;;;;;;;;;;13.20;87.70;;;;;;5087554;28;19912;-65
2022/07/25 13:38:43;;;;;;;;;;;13.30;87.60;;;;;;5089920;28;19920;-65
2022/07/25 13:41:10;;;;;;;;;;;13.30;87.30;;;;;;5082105;28;19967;-65
2022/07/25 13:43:36;;;;;;;;;;;13.30;87.30;;;;;;5091261;28;19916;-65
2022/07/25 13:46:03;;;;;;;;;;;13.30;87.30;;;;;;5091467;28;19931;-65
2022/07/25 13:48:29;;;;;;;;;;;13.30;87.10;;;;;;5083976;28;19977;-64
2022/07/25 13:50:56;;;;;;;;;;;13.30;87.30;;;;;;5088959;28;19923;-65
2022/07/25 13:53:23;;;;;;;;;;;13.30;87.20;;;;;;5086759;28;19919;-64
2022/07/25 13:55:49;;;;;;;;;;;13.30;87.50;;;;;;5084174;28;19920;-63
2022/07/25 13:58:16;;;;;;;;;;;13.30;87.70;;;;;;5089377;28;20011;-65
2022/07/25 14:00:43;;;;;;;;;;;13.20;87.70;;;;;;5085679;28;19997;-67
2022/07/25 14:03:09;;;;;;;;;;;13.20;87.50;;;;;;5106475;28;20336;-67
2022/07/25 14:05:39;;;;;;;;;;;13.20;87.40;;;;;;5087532;28;19992;-66
2022/07/25 14:08:06;;;;;;;;;;;13.20;87.20;;;;;;5085487;28;19920;-67
2022/07/25 14:10:33;;;;;;;;;;;13.20;87.40;;;;;;5091139;28;19978;-65
2022/07/25 14:13:00;;;;;;;;;;;13.20;87.50;;;;;;5085892;28;19956;-65
2022/07/25 14:15:26;;;;;;;;;;;13.20;87.30;;;;;;5089541;28;19986;-65
2022/07/25 14:17:53;;;;;;;;;;;13.20;87.50;;;;;;5089173;28;20267;-65
2022/07/25 14:20:19;;;;;;;;;;;13.10;87.80;;;;;;5088836;28;20318;-65
2022/07/25 14:22:46;;;;;;;;;;;13.10;87.90;;;;;;5088259;28;20011;-65
2022/07/25 14:25:13;;;;;;;;;;;13.00;88.20;;;;;;5089593;28;19912;-67
2022/07/25 14:27:39;;;;;;;;;;;13.00;88.50;;;;;;5089275;28;19916;-68
2022/07/25 14:30:07;;;;;;;;;;;13.00;88.90;;;;;;5091753;28;19916;-67
2022/07/25 14:32:34;;;;;;;;;;;13.00;88.90;;;;;;5087307;28;19959;-67
2022/07/25 14:35:01;;;;;;;;;;;13.00;89.00;;;;;;5087150;28;19950;-67
2022/07/25 14:37:30;;;;;;;;;;;13.00;89.00;;;;;;5091368;28;19928;-67
2022/07/25 14:39:57;;;;;;;;;;;13.00;88.90;;;;;;5091858;28;20018;-67
2022/07/25 14:42:23;;;;;;;;;;;13.00;88.70;;;;;;5090056;28;19920;-67
2022/07/25 14:44:50;;;;;;;;;;;13.00;88.80;;;;;;5088425;28;20415;-67
2022/07/25 14:47:16;;;;;;;;;;;12.90;88.80;;;;;;5093929;28;19916;-67
2022/07/25 14:49:43;;;;;;;;;;;12.90;89.00;;;;;;5091469;28;19915;-67
2022/07/25 14:52:10;;;;;;;;;;;12.90;89.00;;;;;;5089811;28;20000;-67
2022/07/25 14:54:37;;;;;;;;;;;12.80;88.70;;;;;;5090656;28;19959;-66
2022/07/25 14:57:04;;;;;;;;;;;12.80;88.90;;;;;;5091492;28;19918;-67
2022/07/25 14:59:30;;;;;;;;;;;12.80;89.20;;;;;;5088765;28;19977;-67
2022/07/25 15:01:57;;;;;;;;;;;12.80;89.10;;;;;;5086558;28;19950;-66
2022/07/25 15:04:24;;;;;;;;;;;12.70;89.40;;;;;;5081528;28;19923;-68
2022/07/25 15:06:51;;;;;;;;;;;12.70;89.50;;;;;;5084737;28;19919;-68
2022/07/25 15:09:20;;;;;;;;;;;12.70;89.60;;;;;;5091532;28;19965;-67
2022/07/25 15:11:47;;;;;;;;;;;12.70;89.70;;;;;;5088315;28;19908;-67
2022/07/25 15:14:14;;;;;;;;;;;12.70;89.70;;;;;;5090112;28;19919;-67
2022/07/25 15:16:40;;;;;;;;;;;12.70;89.80;;;;;;5098462;28;20550;-67
2022/07/25 15:19:07;;;;;;;;;;;12.70;89.80;;;;;;5087761;28;20340;-67
2022/07/25 15:21:34;;;;;;;;;;;12.70;89.40;;;;;;5093228;28;19908;-67
2022/07/25 15:24:01;;;;;;;;;;;12.70;89.30;;;;;;5091877;28;19912;-67
2022/07/25 15:26:27;;;;;;;;;;;12.70;89.00;;;;;;5091987;28;19912;-67
2022/07/25 15:28:54;;;;;;;;;;;12.70;89.00;;;;;;5086977;28;19912;-67
2022/07/25 15:31:22;;;;;;;;;;;12.70;89.30;;;;;;5083654;28;19919;-67
2022/07/25 15:33:49;;;;;;;;;;;12.80;89.10;;;;;;5080690;28;19919;-67
2022/07/25 15:36:16;;;;;;;;;;;12.70;89.20;;;;;;5091728;28;19941;-67
2022/07/25 15:38:43;;;;;;;;;;;12.70;89.10;;;;;;5090903;28;19967;-67
2022/07/25 15:41:10;;;;;;;;;;;12.80;89.10;;;;;;5086605;28;19916;-68
2022/07/25 15:43:37;;;;;;;;;;;12.80;89.00;;;;;;5080911;28;19919;-68
2022/07/25 15:46:04;;;;;;;;;;;12.80;89.10;;;;;;5092721;28;19928;-67
2022/07/25 15:48:31;;;;;;;;;;;12.70;89.00;;;;;;5090647;28;19912;-67
2022/07/25 15:50:59;;;;;;;;;;;12.70;89.20;;;;;;5089474;28;19952;-67
2022/07/25 15:53:27;;;;;;;;;;;12.70;89.10;;;;;;5091338;28;19970;-67
2022/07/25 15:55:53;;;;;;;;;;;12.70;88.90;;;;;;5090667;28;19918;-67
2022/07/25 15:58:20;;;;;;;;;;;12.70;89.10;;;;;;5089643;28;19920;-67
2022/07/25 16:00:46;;;;;;;;;;;12.60;89.10;;;;;;5090409;28;19958;-67
2022/07/25 16:03:13;;;;;;;;;;;12.60;89.30;;;;;;5086822;28;20336;-67
2022/07/25 16:05:40;;;;;;;;;;;12.70;89.10;;;;;;5087271;28;20281;-67
2022/07/25 16:08:10;;;;;;;;;;;12.70;89.30;;;;;;5091019;28;20436;-66
2022/07/25 16:10:36;;;;;;;;;;;12.60;88.90;;;;;;5091888;28;20426;-67
2022/07/25 16:13:03;;;;;;;;;;;12.60;89.00;;;;;;5087330;28;19919;-70
2022/07/25 16:15:29;;;;;;;;;;;12.60;89.30;;;;;;5088966;28;19912;-66
2022/07/25 16:17:57;;;;;;;;;;;12.60;89.60;;;;;;5091720;28;19919;-67
2022/07/25 16:20:23;;;;;;;;;;;12.60;89.70;;;;;;5090614;28;20362;-67
2022/07/25 16:22:54;;;;;;;;;;;12.60;89.70;;;;;;5089738;28;20272;-67
2022/07/25 16:25:24;;;;;;;;;;;12.60;89.60;;;;;;5089664;28;19942;-67
2022/07/25 16:27:51;;;;;;;;;;;12.70;89.80;;;;;;5090337;28;19912;-67
2022/07/25 16:30:18;;;;;;;;;;;12.70;89.60;;;;;;5083593;28;19946;-67
2022/07/25 16:32:45;;;;;;;;;;;12.70;89.60;;;;;;5089886;28;20012;-67
2022/07/25 16:35:12;;;;;;;;;;;12.70;89.80;;;;;;5086531;28;19912;-67
2022/07/25 16:37:39;;;;;;;;;;;12.70;89.90;;;;;;5085772;28;20378;-67
2022/07/25 16:40:06;;;;;;;;;;;12.70;89.60;;;;;;5084790;28;20289;-67
2022/07/25 16:42:33;;;;;;;;;;;12.70;89.70;;;;;;5085251;28;19912;-67
2022/07/25 16:45:00;;;;;;;;;;;12.70;89.90;;;;;;5087174;28;19998;-67
2022/07/25 16:47:26;;;;;;;;;;;12.70;90.00;;;;;;5089484;28;19912;-67
2022/07/25 16:49:53;;;;;;;;;;;12.80;89.90;;;;;;5088262;28;19920;-67
2022/07/25 16:52:21;;;;;;;;;;;12.80;89.80;;;;;;5084153;28;19995;-67
2022/07/25 16:54:48;;;;;;;;;;;12.80;89.80;;;;;;5088739;28;19923;-67
2022/07/25 16:57:14;;;;;;;;;;;12.80;89.60;;;;;;5087629;28;20388;-67
2022/07/25 16:59:41;;;;;;;;;;;12.80;89.70;;;;;;5085506;28;19960;-67
2022/07/25 17:02:08;;;;;;;;;;;12.80;89.70;;;;;;5001431;28;2433308;-66
2022/07/25 17:04:35;;;;;;;;;;;12.80;89.70;;;;;;5085861;28;20438;-67
2022/07/25 17:07:01;;;;;;;;;;;12.80;89.80;;;;;;5089401;28;20286;-67
2022/07/25 17:09:28;;;;;;;;;;;12.80;89.80;;;;;;5089488;28;19912;-67
2022/07/25 17:11:54;;;;;;;;;;;12.80;89.90;;;;;;5089015;28;19947;-67
2022/07/25 17:14:21;;;;;;;;;;;12.80;90.20;;;;;;5090866;28;19942;-66
2022/07/25 17:16:48;;;;;;;;;;;12.80;90.30;;;;;;5090868;28;19916;-67
2022/07/25 17:19:15;;;;;;;;;;;12.80;90.30;;;;;;5083414;28;19924;-66
2022/07/25 17:21:41;;;;;;;;;;;12.80;90.20;;;;;;5080678;28;19912;-66
2022/07/25 17:24:08;;;;;;;;;;;12.80;90.10;;;;;;5093121;28;19916;-66
2022/07/25 17:26:34;;;;;;;;;;;12.80;90.50;;;;;;5093128;28;19912;-67
2022/07/25 17:29:01;;;;;;;;;;;12.80;90.30;;;;;;5092196;28;19934;-66
2022/07/25 17:31:28;;;;;;;;;;;12.80;90.40;;;;;;5092839;28;19962;-66
2022/07/25 17:33:54;;;;;;;;;;;12.80;90.60;;;;;;5095316;28;19915;-67
2022/07/25 17:36:21;;;;;;;;;;;12.80;91.00;;;;;;5091553;28;19913;-67
2022/07/25 17:38:47;;;;;;;;;;;12.70;91.20;;;;;;5086266;28;19952;-67
2022/07/25 17:41:14;;;;;;;;;;;12.70;91.40;;;;;;5094593;28;19912;-67
2022/07/25 17:43:40;;;;;;;;;;;12.70;91.70;;;;;;5094199;28;19998;-68
2022/07/25 17:46:09;;;;;;;;;;;12.70;92.00;;;;;;5094400;28;19919;-69
2022/07/25 17:48:36;;;;;;;;;;;12.60;92.50;;;;;;5083495;28;19935;-69
2022/07/25 17:51:02;;;;;;;;;;;12.60;93.00;;;;;;5093307;28;20014;-68
2022/07/25 17:53:29;;;;;;;;;;;12.50;93.40;;;;;;5088689;28;20011;-68
2022/07/25 17:55:56;;;;;;;;;;;12.50;93.60;;;;;;5090284;28;19908;-68
2022/07/25 17:58:22;;;;;;;;;;;12.40;93.90;;;;;;5088116;28;20310;-68
2022/07/25 18:00:49;;;;;;;;;;;12.40;94.10;;;;;;5088586;28;20366;-68
2022/07/25 18:03:15;;;;;;;;;;;12.40;94.20;;;;;;5089374;28;20411;-68
2022/07/25 18:05:42;;;;;;;;;;;12.40;94.30;;;;;;5089682;28;20323;-68
2022/07/25 18:08:09;;;;;;;;;;;12.30;94.40;;;;;;5089580;28;19912;-68
2022/07/25 18:10:36;;;;;;;;;;;12.30;94.50;;;;;;5084169;28;20007;-68
2022/07/25 18:13:03;;;;;;;;;;;12.30;94.50;;;;;;5098111;28;19912;-68
2022/07/25 18:15:29;;;;;;;;;;;12.30;94.70;;;;;;5078431;28;19913;-68